HBFLO LSZG-LSZS

Flight info

Callsign HBFLO
Flight time 0h 42m
Altitude 3500
Route DIRECT
Aircraft TB96/L-V/7000

Departure

Time 2026-04-26 19:29
Airport Grenchen Airfield (LSZG)

Arrival

Time 2026-04-26 20:12
Airport Engadin Airport (LSZS)
Time Latitude Longitude Altitude Speed Heading
2026-04-26 19:12 47.18191 7.41239 1415 ft 0 kts 245°
2026-04-26 19:22 47.18193 7.41245 1415 ft 2 kts 245°
2026-04-26 19:22 47.18199 7.41266 1415 ft 2 kts 230°
2026-04-26 19:23 47.18212 7.41268 1415 ft 2 kts 135°
2026-04-26 19:23 47.18213 7.41267 1415 ft 0 kts 129°
2026-04-26 19:24 47.18132 7.41257 1415 ft 15 kts 231°
2026-04-26 19:25 47.18091 7.41119 1415 ft 8 kts 192°
2026-04-26 19:25 47.18089 7.41118 1415 ft 4 kts 179°
2026-04-26 19:25 47.18074 7.41123 1415 ft 0 kts 161°
2026-04-26 19:28 47.18052 7.41135 1415 ft 9 kts 156°
2026-04-26 19:28 47.18008 7.41171 1417 ft 12 kts 118°
2026-04-26 19:29 47.18087 7.41441 1416 ft 61 kts 65°
2026-04-26 19:29 47.18429 7.42696 1577 ft 127 kts 69°
2026-04-26 19:29 47.18680 7.43998 2119 ft 132 kts 77°
2026-04-26 19:29 47.18886 7.45313 2779 ft 133 kts 86°
2026-04-26 19:30 47.18346 7.46596 2838 ft 176 kts 148°
2026-04-26 19:30 47.17619 7.46925 3474 ft 155 kts 189°
2026-04-26 19:30 47.16810 7.45996 4058 ft 165 kts 231°
2026-04-26 19:30 47.16277 7.45043 4003 ft 191 kts 233°
2026-04-26 19:31 47.14659 7.43076 4859 ft 191 kts 188°
2026-04-26 19:31 47.13760 7.43209 5010 ft 202 kts 170°
2026-04-26 19:31 47.12329 7.43572 5279 ft 210 kts 172°
2026-04-26 19:31 47.10440 7.43957 6039 ft 204 kts 174°
2026-04-26 19:32 47.09491 7.44101 6440 ft 203 kts 176°
2026-04-26 19:32 47.08088 7.44273 6923 ft 207 kts 175°
2026-04-26 19:32 47.06662 7.44525 7472 ft 206 kts 172°
2026-04-26 19:32 47.05251 7.44949 8005 ft 208 kts 166°
2026-04-26 19:33 47.03869 7.45680 8465 ft 213 kts 155°
2026-04-26 19:33 47.02526 7.46648 8912 ft 215 kts 154°
2026-04-26 19:33 47.01321 7.47676 10060 ft 179 kts 146°
2026-04-26 19:33 47.00355 7.48773 10765 ft 181 kts 140°
2026-04-26 19:34 46.99389 7.50080 11046 ft 201 kts 137°
2026-04-26 19:34 46.98300 7.51646 10958 ft 234 kts 135°
2026-04-26 19:34 46.97227 7.53472 11379 ft 231 kts 127°
2026-04-26 19:34 46.96113 7.54966 11989 ft 223 kts 156°
2026-04-26 19:35 46.94511 7.55346 11900 ft 245 kts 181°
2026-04-26 19:35 46.92840 7.55472 12461 ft 233 kts 167°
2026-04-26 19:35 46.91262 7.56311 12145 ft 262 kts 160°
2026-04-26 19:35 46.89476 7.57198 11926 ft 273 kts 163°
2026-04-26 19:36 46.87720 7.57993 12457 ft 255 kts 163°
2026-04-26 19:36 46.86603 7.58509 12586 ft 257 kts 163°
2026-04-26 19:36 46.84168 7.59529 12172 ft 276 kts 167°
2026-04-26 19:36 46.82346 7.60147 12356 ft 271 kts 168°
2026-04-26 19:37 46.80450 7.60791 11872 ft 287 kts 167°
2026-04-26 19:37 46.78588 7.61645 11913 ft 280 kts 156°
2026-04-26 19:37 46.76883 7.63119 11374 ft 293 kts 145°
2026-04-26 19:37 46.75310 7.65007 11287 ft 286 kts 137°
2026-04-26 19:38 46.73952 7.67102 10919 ft 292 kts 131°
2026-04-26 19:38 46.72654 7.69407 10566 ft 293 kts 128°
2026-04-26 19:38 46.71509 7.71858 10281 ft 292 kts 120°
2026-04-26 19:38 46.70679 7.74549 9915 ft 293 kts 106°
2026-04-26 19:39 46.70506 7.77497 9225 ft 301 kts 83°
2026-04-26 19:39 46.70828 7.80525 8696 ft 300 kts 81°
2026-04-26 19:39 46.71182 7.83439 8716 ft 283 kts 78°
2026-04-26 19:39 46.71479 7.86237 8487 ft 282 kts 86°
2026-04-26 19:40 46.71372 7.89164 7832 ft 293 kts 94°
2026-04-26 19:40 46.71538 7.92106 7407 ft 291 kts 76°
2026-04-26 19:40 46.72001 7.94914 7322 ft 278 kts 83°
2026-04-26 19:40 46.72124 7.97654 7262 ft 272 kts 81°
2026-04-26 19:41 46.72772 8.00298 6692 ft 283 kts 62°
2026-04-26 19:41 46.73516 8.02907 6570 ft 275 kts 76°
2026-04-26 19:41 46.73678 8.05651 6483 ft 271 kts 92°
2026-04-26 19:41 46.73614 8.07479 6339 ft 272 kts 93°
2026-04-26 19:42 46.73621 8.11101 6178 ft 269 kts 88°
2026-04-26 19:42 46.73663 8.13834 5984 ft 270 kts 92°
2026-04-26 19:42 46.73137 8.16457 5581 ft 276 kts 124°
2026-04-26 19:42 46.71862 8.18398 5985 ft 252 kts 136°
2026-04-26 19:43 46.70655 8.20210 6001 ft 256 kts 133°
2026-04-26 19:43 46.69467 8.22150 6075 ft 255 kts 128°
2026-04-26 19:43 46.68409 8.24185 6348 ft 247 kts 131°
2026-04-26 19:43 46.67238 8.25958 6611 ft 246 kts 139°
2026-04-26 19:44 46.65945 8.27565 6987 ft 238 kts 140°
2026-04-26 19:44 46.64598 8.29114 6872 ft 254 kts 150°
2026-04-26 19:44 46.62913 8.29819 7070 ft 245 kts 169°
2026-04-26 19:44 46.61441 8.30843 7545 ft 236 kts 154°
2026-04-26 19:45 46.59821 8.31458 7581 ft 246 kts 170°
2026-04-26 19:45 46.58178 8.32066 7973 ft 238 kts 161°
2026-04-26 19:45 46.56645 8.32925 8370 ft 236 kts 159°
2026-04-26 19:45 46.55107 8.33845 8326 ft 250 kts 136°
2026-04-26 19:46 46.54832 8.36034 9276 ft 216 kts 80°
2026-04-26 19:46 46.55450 8.38138 9359 ft 236 kts 53°
2026-04-26 19:46 46.56467 8.40073 9342 ft 251 kts 54°
2026-04-26 19:46 46.57575 8.42042 9354 ft 252 kts 43°
2026-04-26 19:47 46.58471 8.44140 8764 ft 240 kts 76°
2026-04-26 19:47 46.58544 8.45758 8154 ft 241 kts 94°
2026-04-26 19:47 46.58907 8.48650 7839 ft 216 kts 58°
2026-04-26 19:47 46.59822 8.50561 7432 ft 240 kts 54°
2026-04-26 19:48 46.60874 8.52455 7401 ft 239 kts 50°
2026-04-26 19:48 46.61674 8.54562 7507 ft 239 kts 64°
2026-04-26 19:48 46.62388 8.56679 8031 ft 231 kts 61°
2026-04-26 19:48 46.63344 8.58648 7968 ft 248 kts 55°
2026-04-26 19:49 46.64072 8.60993 7997 ft 253 kts 69°
2026-04-26 19:49 46.64866 8.63243 8227 ft 251 kts 58°
2026-04-26 19:49 46.65638 8.65517 8111 ft 258 kts 71°
2026-04-26 19:49 46.65379 8.68117 7721 ft 261 kts 108°
2026-04-26 19:50 46.65303 8.70658 7638 ft 256 kts 75°
2026-04-26 19:50 46.65928 8.73121 7265 ft 261 kts 67°
2026-04-26 19:50 46.66653 8.75458 7448 ft 251 kts 64°
2026-04-26 19:50 46.67272 8.77843 7303 ft 259 kts 75°
2026-04-26 19:51 46.67904 8.80291 7251 ft 258 kts 60°
2026-04-26 19:51 46.69046 8.82296 7290 ft 256 kts 42°
2026-04-26 19:51 46.70208 8.84249 7341 ft 256 kts 58°
2026-04-26 19:51 46.70924 8.86647 7140 ft 263 kts 72°
2026-04-26 19:52 46.71401 8.89160 7281 ft 255 kts 75°
2026-04-26 19:52 46.71856 8.91679 7274 ft 257 kts 71°
2026-04-26 19:52 46.72611 8.94016 7227 ft 257 kts 57°
2026-04-26 19:52 46.73686 8.96035 7406 ft 250 kts 46°
2026-04-26 19:53 46.74752 8.98058 7303 ft 256 kts 62°
2026-04-26 19:53 46.75376 9.00538 7167 ft 260 kts 74°
2026-04-26 19:53 46.75744 9.03069 7255 ft 257 kts 79°
2026-04-26 19:53 46.76094 9.05670 7061 ft 263 kts 82°
2026-04-26 19:54 46.76132 9.08335 6927 ft 263 kts 91°
2026-04-26 19:54 46.76249 9.10952 6899 ft 260 kts 82°
2026-04-26 19:54 46.76371 9.13579 6764 ft 262 kts 91°
2026-04-26 19:54 46.76353 9.16248 6655 ft 262 kts 86°
2026-04-26 19:55 46.76727 9.18839 6528 ft 262 kts 69°
2026-04-26 19:55 46.77304 9.21347 6420 ft 261 kts 80°
2026-04-26 19:55 46.77643 9.23935 6365 ft 258 kts 73°
2026-04-26 19:55 46.78610 9.26068 6424 ft 250 kts 32°
2026-04-26 19:56 46.80254 9.26703 6216 ft 256 kts 359°
2026-04-26 19:56 46.81962 9.26293 6519 ft 242 kts 341°
2026-04-26 19:56 46.83346 9.25107 7156 ft 216 kts 310°
2026-04-26 19:56 46.83686 9.23148 7767 ft 210 kts 261°
2026-04-26 19:57 46.83643 9.21049 8140 ft 198 kts 305°
2026-04-26 19:57 46.84810 9.20304 8885 ft 198 kts
2026-04-26 19:57 46.86095 9.21192 9061 ft 216 kts 47°
2026-04-26 19:57 46.86872 9.23211 8825 ft 245 kts 76°
2026-04-26 19:58 46.86688 9.25794 8451 ft 264 kts 111°
2026-04-26 19:58 46.85879 9.28166 8629 ft 257 kts 119°
2026-04-26 19:58 46.85184 9.30541 8683 ft 259 kts 102°
2026-04-26 19:58 46.84967 9.33184 8399 ft 268 kts 97°
2026-04-26 19:59 46.84641 9.35949 7766 ft 283 kts 102°
2026-04-26 19:59 46.84336 9.38764 7528 ft 274 kts 92°
2026-04-26 19:59 46.84479 9.41520 6905 ft 270 kts 82°
2026-04-26 19:59 46.84756 9.44207 6453 ft 264 kts 78°
2026-04-26 20:00 46.85160 9.46820 5765 ft 266 kts 81°
2026-04-26 20:00 46.85221 9.49551 5483 ft 265 kts 98°
2026-04-26 20:00 46.84551 9.52018 5469 ft 262 kts 126°
2026-04-26 20:00 46.83191 9.53613 5668 ft 253 kts 157°
2026-04-26 20:01 46.81478 9.54280 5620 ft 257 kts 172°
2026-04-26 20:01 46.79758 9.54572 6084 ft 244 kts 176°
2026-04-26 20:01 46.78049 9.54784 6219 ft 250 kts 174°
2026-04-26 20:01 46.76335 9.55155 6278 ft 252 kts 171°
2026-04-26 20:02 46.74615 9.55549 6518 ft 249 kts 173°
2026-04-26 20:02 46.72873 9.55853 6624 ft 253 kts 175°
2026-04-26 20:02 46.71122 9.56103 6826 ft 251 kts 174°
2026-04-26 20:02 46.69976 9.56328 6966 ft 251 kts 172°
2026-04-26 20:03 46.67688 9.57002 7103 ft 255 kts 167°
2026-04-26 20:03 46.65976 9.57665 7300 ft 252 kts 170°
2026-04-26 20:03 46.64244 9.58189 7243 ft 259 kts 168°
2026-04-26 20:03 46.62448 9.58658 7111 ft 262 kts 169°
2026-04-26 20:04 46.60744 9.59551 7095 ft 263 kts 150°
2026-04-26 20:04 46.59210 9.60977 7068 ft 262 kts 150°
2026-04-26 20:04 46.57529 9.61954 7074 ft 263 kts 169°
2026-04-26 20:04 46.55705 9.62124 7056 ft 262 kts 185°
2026-04-26 20:05 46.53906 9.61990 7152 ft 258 kts 179°
2026-04-26 20:05 46.52117 9.62316 7049 ft 265 kts 170°
2026-04-26 20:05 46.50365 9.62882 7526 ft 250 kts 168°
2026-04-26 20:05 46.48634 9.63386 7612 ft 257 kts 167°
2026-04-26 20:06 46.47157 9.64650 8108 ft 248 kts 132°
2026-04-26 20:06 46.46414 9.66902 8342 ft 252 kts 99°
2026-04-26 20:06 46.46517 9.69419 8639 ft 256 kts 75°
2026-04-26 20:06 46.47101 9.71965 8451 ft 271 kts 71°
2026-04-26 20:07 46.47353 9.74637 8620 ft 269 kts 97°
2026-04-26 20:07 46.46600 9.76970 8179 ft 247 kts 133°
2026-04-26 20:07 46.45600 9.78785 7920 ft 219 kts 105°
2026-04-26 20:07 46.45826 9.80818 7932 ft 200 kts 65°
2026-04-26 20:08 46.46692 9.82323 7573 ft 194 kts 33°
2026-04-26 20:08 46.47737 9.83372 7243 ft 175 kts 34°
2026-04-26 20:08 46.48797 9.84093 6964 ft 163 kts 19°
2026-04-26 20:08 46.49753 9.84785 7009 ft 150 kts 27°
2026-04-26 20:09 46.50611 9.85429 6861 ft 130 kts 26°
2026-04-26 20:09 46.51391 9.86018 6670 ft 127 kts 20°
2026-04-26 20:09 46.52206 9.86569 6425 ft 134 kts 24°
2026-04-26 20:09 46.53073 9.87224 6262 ft 140 kts 22°
2026-04-26 20:10 46.53908 9.87715 6342 ft 122 kts 19°
2026-04-26 20:10 46.54688 9.88063 6329 ft 111 kts 10°
2026-04-26 20:10 46.55394 9.88391 6332 ft 104 kts 43°
2026-04-26 20:10 46.55409 9.89314 6092 ft 100 kts 139°
2026-04-26 20:11 46.54767 9.89443 5756 ft 94 kts 200°
2026-04-26 20:11 46.54244 9.89056 5612 ft 77 kts 212°
2026-04-26 20:11 46.53804 9.88698 5583 ft 65 kts 210°
2026-04-26 20:12 46.53332 9.88322 5602 ft 13 kts 209°
2026-04-26 20:12 46.53221 9.88232 5601 ft 20 kts 210°
2026-04-26 20:12 46.53098 9.88129 5598 ft 21 kts 210°
2026-04-26 20:12 46.53007 9.88048 5600 ft 16 kts 218°
2026-04-26 20:13 46.53021 9.87945 5599 ft 13 kts 357°
2026-04-26 20:13 46.53105 9.87988 5601 ft 7 kts 27°
2026-04-26 20:13 46.53121 9.88034 5598 ft 0 kts 99°